sensor_id;sensor_type;location;lat;lon;timestamp;pressure;altitude;pressure_sealevel;temperature;humidity
62694;BME280;48759;52.544;13.418;2023-04-07T09:24:27;101305.03;;;20.63;21.16
62694;BME280;48759;52.544;13.418;2023-04-07T09:27:11;101303.91;;;20.25;21.04
62694;BME280;48759;52.544;13.418;2023-04-07T09:29:40;101304.25;;;19.17;22.09
62694;BME280;48759;52.544;13.418;2023-04-07T09:32:12;101309.91;;;20.72;21.09
62694;BME280;48759;52.544;13.418;2023-04-07T09:35:03;101318.84;;;19.80;24.46
62694;BME280;48759;52.544;13.418;2023-04-07T09:37:44;101320.81;;;20.52;21.81
62694;BME280;48759;52.544;13.418;2023-04-07T09:41:08;101316.16;;;19.12;23.08
62694;BME280;48759;52.544;13.418;2023-04-07T09:43:45;101319.66;;;19.64;22.28
62694;BME280;48759;52.544;13.418;2023-04-07T09:46:16;101319.50;;;19.88;22.25
62694;BME280;48759;52.544;13.418;2023-04-07T09:49:03;101313.84;;;18.81;23.08
62694;BME280;48759;52.544;13.418;2023-04-07T09:51:30;101308.53;;;21.72;21.38
62694;BME280;48759;52.544;13.418;2023-04-07T09:53:58;101312.44;;;20.74;21.80
62694;BME280;48759;52.544;13.418;2023-04-07T09:56:28;101307.06;;;20.12;22.25
62694;BME280;48759;52.544;13.418;2023-04-07T09:58:58;101317.75;;;20.53;22.05
62694;BME280;48759;52.544;13.418;2023-04-07T10:01:38;101314.16;;;20.36;22.48
62694;BME280;48759;52.544;13.418;2023-04-07T10:04:11;101317.81;;;20.20;22.66
62694;BME280;48759;52.544;13.418;2023-04-07T10:06:40;101315.72;;;21.36;22.01
62694;BME280;48759;52.544;13.418;2023-04-07T10:09:08;101309.03;;;21.15;22.09
62694;BME280;48759;52.544;13.418;2023-04-07T10:11:38;101314.66;;;20.72;22.67
62694;BME280;48759;52.544;13.418;2023-04-07T10:14:08;101316.38;;;19.84;23.32
62694;BME280;48759;52.544;13.418;2023-04-07T10:16:36;101315.63;;;20.22;23.40
62694;BME280;48759;52.544;13.418;2023-04-07T10:19:05;101315.97;;;20.86;22.45
62694;BME280;48759;52.544;13.418;2023-04-07T10:21:34;101307.69;;;20.96;22.91
62694;BME280;48759;52.544;13.418;2023-04-07T10:24:10;101320.56;;;19.98;23.78
62694;BME280;48759;52.544;13.418;2023-04-07T10:26:49;101320.16;;;19.44;24.00
62694;BME280;48759;52.544;13.418;2023-04-07T10:29:18;101315.81;;;20.54;23.30
62694;BME280;48759;52.544;13.418;2023-04-07T10:31:46;101314.53;;;20.83;23.20
62694;BME280;48759;52.544;13.418;2023-04-07T10:34:14;101321.88;;;20.29;24.05
62694;BME280;48759;52.544;13.418;2023-04-07T10:37:09;101318.81;;;19.19;24.73
62694;BME280;48759;52.544;13.418;2023-04-07T10:39:38;101317.72;;;19.20;25.62
62694;BME280;48759;52.544;13.418;2023-04-07T10:42:07;101319.50;;;18.97;25.84
62694;BME280;48759;52.544;13.418;2023-04-07T10:44:54;101329.16;;;20.30;25.47
62694;BME280;48759;52.544;13.418;2023-04-07T10:47:28;101323.56;;;20.30;25.72
62694;BME280;48759;52.544;13.418;2023-04-07T10:50:18;101318.09;;;20.40;26.25
62694;BME280;48759;52.544;13.418;2023-04-07T10:52:47;101315.63;;;19.72;27.47
62694;BME280;48759;52.544;13.418;2023-04-07T10:55:44;101319.78;;;20.19;27.55
62694;BME280;48759;52.544;13.418;2023-04-07T10:58:27;101309.31;;;18.51;29.07
62694;BME280;48759;52.544;13.418;2023-04-07T11:01:17;101321.38;;;20.15;28.51
62694;BME280;48759;52.544;13.418;2023-04-07T11:03:58;101316.22;;;20.63;28.75
62694;BME280;48759;52.544;13.418;2023-04-07T11:06:26;101317.81;;;20.20;30.06
62694;BME280;48759;52.544;13.418;2023-04-07T11:08:54;101314.84;;;20.87;29.96
62694;BME280;48759;52.544;13.418;2023-04-07T11:11:36;101322.38;;;20.26;31.61
62694;BME280;48759;52.544;13.418;2023-04-07T11:14:24;101314.00;;;21.08;31.52
62694;BME280;48759;52.544;13.418;2023-04-07T11:16:52;101306.03;;;20.56;31.84
62694;BME280;48759;52.544;13.418;2023-04-07T11:19:21;101316.72;;;21.25;31.41
62694;BME280;48759;52.544;13.418;2023-04-07T11:22:15;101305.94;;;20.90;31.50
62694;BME280;48759;52.544;13.418;2023-04-07T11:24:53;101314.47;;;18.71;33.61
62694;BME280;48759;52.544;13.418;2023-04-07T11:27:24;101314.34;;;21.39;31.91
62694;BME280;48759;52.544;13.418;2023-04-07T11:30:13;101311.19;;;19.42;33.08
62694;BME280;48759;52.544;13.418;2023-04-07T11:32:47;101308.75;;;21.39;32.60
62694;BME280;48759;52.544;13.418;2023-04-07T11:35:25;101314.13;;;19.98;33.00
62694;BME280;48759;52.544;13.418;2023-04-07T11:37:57;101304.88;;;20.14;32.79
62694;BME280;48759;52.544;13.418;2023-04-07T11:40:36;101311.03;;;20.16;33.16
62694;BME280;48759;52.544;13.418;2023-04-07T11:43:18;101318.63;;;19.99;33.36
62694;BME280;48759;52.544;13.418;2023-04-07T11:46:03;101310.38;;;18.27;35.52
62694;BME280;48759;52.544;13.418;2023-04-07T11:48:35;101307.34;;;19.03;34.75
62694;BME280;48759;52.544;13.418;2023-04-07T11:51:03;101312.09;;;17.81;36.61
62694;BME280;48759;52.544;13.418;2023-04-07T11:53:35;101313.63;;;16.15;38.39
62694;BME280;48759;52.544;13.418;2023-04-07T11:56:05;101309.06;;;17.00;38.30
62694;BME280;48759;52.544;13.418;2023-04-07T11:58:35;101298.38;;;17.27;37.42
62694;BME280;48759;52.544;13.418;2023-04-07T12:01:05;101306.41;;;18.34;36.59
62694;BME280;48759;52.544;13.418;2023-04-07T12:03:53;101305.47;;;17.52;37.62
62694;BME280;48759;52.544;13.418;2023-04-07T12:06:27;101311.03;;;19.49;34.69
62694;BME280;48759;52.544;13.418;2023-04-07T12:09:00;101304.25;;;18.88;35.59
62694;BME280;48759;52.544;13.418;2023-04-07T12:11:30;101299.75;;;17.89;37.16
62694;BME280;48759;52.544;13.418;2023-04-07T12:13:59;101311.00;;;18.41;36.56
62694;BME280;48759;52.544;13.418;2023-04-07T12:16:30;101305.66;;;19.31;36.70
62694;BME280;48759;52.544;13.418;2023-04-07T12:19:16;101303.94;;;19.01;35.45
62694;BME280;48759;52.544;13.418;2023-04-07T12:21:52;101310.94;;;18.87;36.64
62694;BME280;48759;52.544;13.418;2023-04-07T12:24:20;101308.97;;;18.01;37.35
62694;BME280;48759;52.544;13.418;2023-04-07T12:26:52;101313.41;;;19.57;35.69
62694;BME280;48759;52.544;13.418;2023-04-07T12:29:29;101311.25;;;20.31;34.80
62694;BME280;48759;52.544;13.418;2023-04-07T12:32:06;101305.94;;;20.30;34.52
62694;BME280;48759;52.544;13.418;2023-04-07T12:35:02;101313.50;;;20.68;34.34
62694;BME280;48759;52.544;13.418;2023-04-07T12:37:32;101313.94;;;20.21;34.81
62694;BME280;48759;52.544;13.418;2023-04-07T12:40:00;101300.47;;;21.00;33.74
62694;BME280;48759;52.544;13.418;2023-04-07T12:42:52;101299.72;;;18.35;37.49
62694;BME280;48759;52.544;13.418;2023-04-07T12:45:26;101308.53;;;19.98;35.11
62694;BME280;48759;52.544;13.418;2023-04-07T12:47:58;101298.50;;;20.79;34.30
62694;BME280;48759;52.544;13.418;2023-04-07T12:50:25;101305.72;;;19.64;35.10
62694;BME280;48759;52.544;13.418;2023-04-07T12:52:55;101304.25;;;18.48;36.51
62694;BME280;48759;52.544;13.418;2023-04-07T12:55:23;101302.34;;;18.77;36.01
62694;BME280;48759;52.544;13.418;2023-04-07T12:57:53;101301.25;;;19.97;34.69
62694;BME280;48759;52.544;13.418;2023-04-07T13:00:24;101294.03;;;18.65;36.58
62694;BME280;48759;52.544;13.418;2023-04-07T13:02:53;101290.09;;;20.35;34.25
62694;BME280;48759;52.544;13.418;2023-04-07T13:05:26;101298.97;;;19.32;35.39
62694;BME280;48759;52.544;13.418;2023-04-07T13:08:00;101295.38;;;19.48;35.45
62694;BME280;48759;52.544;13.418;2023-04-07T13:10:27;101297.31;;;18.91;36.65
62694;BME280;48759;52.544;13.418;2023-04-07T13:12:54;101292.41;;;19.71;35.18
62694;BME280;48759;52.544;13.418;2023-04-07T13:15:25;101295.13;;;20.00;34.54
62694;BME280;48759;52.544;13.418;2023-04-07T13:17:57;101307.63;;;18.04;36.98
62694;BME280;48759;52.544;13.418;2023-04-07T13:20:27;101300.41;;;16.90;39.42
62694;BME280;48759;52.544;13.418;2023-04-07T13:22:54;101298.25;;;19.86;34.79
62694;BME280;48759;52.544;13.418;2023-04-07T13:25:22;101299.63;;;17.42;38.31
62694;BME280;48759;52.544;13.418;2023-04-07T13:27:49;101291.75;;;17.81;37.47
62694;BME280;48759;52.544;13.418;2023-04-07T13:30:18;101295.25;;;19.26;36.40
62694;BME280;48759;52.544;13.418;2023-04-07T13:32:58;101293.94;;;21.16;33.58
62694;BME280;48759;52.544;13.418;2023-04-07T13:35:28;101293.25;;;20.82;33.41
62694;BME280;48759;52.544;13.418;2023-04-07T13:38:04;101294.63;;;20.80;33.74
62694;BME280;48759;52.544;13.418;2023-04-07T13:40:43;101296.47;;;20.31;34.98
62694;BME280;48759;52.544;13.418;2023-04-07T13:43:14;101290.78;;;21.93;31.97
62694;BME280;48759;52.544;13.418;2023-04-07T13:45:47;101288.09;;;21.45;33.40
62694;BME280;48759;52.544;13.418;2023-04-07T13:48:19;101290.97;;;21.01;33.51
62694;BME280;48759;52.544;13.418;2023-04-07T13:50:50;101290.03;;;19.63;34.91
62694;BME280;48759;52.544;13.418;2023-04-07T13:53:29;101280.41;;;21.08;34.03
62694;BME280;48759;52.544;13.418;2023-04-07T13:56:03;101280.72;;;20.85;33.57
62694;BME280;48759;52.544;13.418;2023-04-07T13:58:33;101292.09;;;21.27;33.53
62694;BME280;48759;52.544;13.418;2023-04-07T14:01:02;101286.53;;;21.05;34.45
62694;BME280;48759;52.544;13.418;2023-04-07T14:03:31;101281.19;;;19.66;35.70
62694;BME280;48759;52.544;13.418;2023-04-07T14:06:01;101284.13;;;17.88;38.70
62694;BME280;48759;52.544;13.418;2023-04-07T14:08:30;101280.22;;;18.35;38.06
62694;BME280;48759;52.544;13.418;2023-04-07T14:10:59;101273.19;;;18.56;37.92
62694;BME280;48759;52.544;13.418;2023-04-07T14:13:27;101281.09;;;17.78;38.74
62694;BME280;48759;52.544;13.418;2023-04-07T14:16:02;101275.53;;;17.78;39.03
62694;BME280;48759;52.544;13.418;2023-04-07T14:18:31;101278.06;;;18.14;38.23
62694;BME280;48759;52.544;13.418;2023-04-07T14:20:58;101279.53;;;18.05;38.36
62694;BME280;48759;52.544;13.418;2023-04-07T14:23:29;101273.00;;;17.76;38.59
62694;BME280;48759;52.544;13.418;2023-04-07T14:25:59;75916.66;;;17.24;40.03
62694;BME280;48759;52.544;13.418;2023-04-07T14:28:28;101270.91;;;16.22;41.59
62694;BME280;48759;52.544;13.418;2023-04-07T14:30:57;101275.47;;;18.48;38.50
62694;BME280;48759;52.544;13.418;2023-04-07T14:33:33;101268.19;;;18.47;38.09
62694;BME280;48759;52.544;13.418;2023-04-07T14:36:23;101273.91;;;18.52;37.66
62694;BME280;48759;52.544;13.418;2023-04-07T14:38:54;101272.00;;;19.21;36.46
62694;BME280;48759;52.544;13.418;2023-04-07T14:41:21;101270.44;;;18.21;38.06
62694;BME280;48759;52.544;13.418;2023-04-07T14:43:50;101268.78;;;20.51;35.68
62694;BME280;48759;52.544;13.418;2023-04-07T14:46:21;101270.22;;;25.68;29.76
62694;BME280;48759;52.544;13.418;2023-04-07T14:48:47;101270.69;;;24.12;30.69
62694;BME280;48759;52.544;13.418;2023-04-07T14:51:20;101277.91;;;20.85;33.43
62694;BME280;48759;52.544;13.418;2023-04-07T14:54:04;101272.91;;;18.69;37.25
62694;BME280;48759;52.544;13.418;2023-04-07T14:56:32;101274.03;;;19.14;36.90
62694;BME280;48759;52.544;13.418;2023-04-07T14:59:00;101271.75;;;17.19;40.12
62694;BME280;48759;52.544;13.418;2023-04-07T15:01:28;101279.69;;;17.57;39.22
62694;BME280;48759;52.544;13.418;2023-04-07T15:03:56;101271.81;;;17.42;40.10
62694;BME280;48759;52.544;13.418;2023-04-07T15:06:25;101282.53;;;18.39;39.29
62694;BME280;48759;52.544;13.418;2023-04-07T15:08:52;101277.66;;;17.52;39.74
62694;BME280;48759;52.544;13.418;2023-04-07T15:11:23;101275.94;;;18.68;39.15
62694;BME280;48759;52.544;13.418;2023-04-07T15:13:51;101284.66;;;19.00;38.14
62694;BME280;48759;52.544;13.418;2023-04-07T15:16:19;101276.13;;;18.03;39.51
62694;BME280;48759;52.544;13.418;2023-04-07T15:18:46;101272.41;;;19.29;37.97
62694;BME280;48759;52.544;13.418;2023-04-07T15:21:14;101279.09;;;18.71;38.08
62694;BME280;48759;52.544;13.418;2023-04-07T15:23:45;101270.84;;;17.48;39.51
62694;BME280;48759;52.544;13.418;2023-04-07T15:26:13;101281.25;;;17.41;41.06
62694;BME280;48759;52.544;13.418;2023-04-07T15:28:42;101278.06;;;16.30;43.53
62694;BME280;48759;52.544;13.418;2023-04-07T15:31:09;101269.59;;;19.13;38.89
62694;BME280;48759;52.544;13.418;2023-04-07T15:33:38;101283.59;;;19.46;38.73
62694;BME280;48759;52.544;13.418;2023-04-07T15:36:06;101282.72;;;17.44;41.33
62694;BME280;48759;52.544;13.418;2023-04-07T15:38:40;101274.97;;;16.38;42.75
62694;BME280;48759;52.544;13.418;2023-04-07T15:41:07;101284.50;;;16.97;43.37
62694;BME280;48759;52.544;13.418;2023-04-07T15:43:34;101280.53;;;17.46;42.72
62694;BME280;48759;52.544;13.418;2023-04-07T15:46:03;101283.97;;;16.70;43.94
62694;BME280;48759;52.544;13.418;2023-04-07T15:48:30;101282.28;;;19.99;42.42
62694;BME280;48759;52.544;13.418;2023-04-07T15:51:01;101278.13;;;18.66;40.17
62694;BME280;48759;52.544;13.418;2023-04-07T15:53:33;101286.16;;;18.39;41.25
62694;BME280;48759;52.544;13.418;2023-04-07T15:56:04;101276.28;;;18.71;40.19
62694;BME280;48759;52.544;13.418;2023-04-07T15:58:37;101280.81;;;18.38;41.11
62694;BME280;48759;52.544;13.418;2023-04-07T16:01:13;101277.72;;;17.76;42.67
62694;BME280;48759;52.544;13.418;2023-04-07T16:03:40;101281.72;;;18.78;40.78
62694;BME280;48759;52.544;13.418;2023-04-07T16:06:08;101285.44;;;18.20;41.18
62694;BME280;48759;52.544;13.418;2023-04-07T16:08:42;101281.00;;;19.11;40.10
62694;BME280;48759;52.544;13.418;2023-04-07T16:11:10;101285.22;;;19.42;39.96
62694;BME280;48759;52.544;13.418;2023-04-07T16:13:37;101290.69;;;19.37;40.19
62694;BME280;48759;52.544;13.418;2023-04-07T16:16:08;101274.94;;;19.31;40.06
62694;BME280;48759;52.544;13.418;2023-04-07T16:18:44;101282.97;;;20.06;39.26
62694;BME280;48759;52.544;13.418;2023-04-07T16:21:14;101280.09;;;18.30;42.21
62694;BME280;48759;52.544;13.418;2023-04-07T16:23:42;101286.13;;;22.09;37.68
62694;BME280;48759;52.544;13.418;2023-04-07T16:26:12;101293.31;;;19.15;40.50
62694;BME280;48759;52.544;13.418;2023-04-07T16:28:42;101284.28;;;19.53;40.33
62694;BME280;48759;52.544;13.418;2023-04-07T16:31:10;101283.97;;;18.53;40.87
62694;BME280;48759;52.544;13.418;2023-04-07T16:33:43;101284.28;;;19.86;39.62
62694;BME280;48759;52.544;13.418;2023-04-07T16:36:12;101285.56;;;20.94;38.11
62694;BME280;48759;52.544;13.418;2023-04-07T16:38:40;101284.47;;;20.74;38.11
62694;BME280;48759;52.544;13.418;2023-04-07T16:41:10;101290.38;;;19.50;40.26
62694;BME280;48759;52.544;13.418;2023-04-07T16:43:38;101294.66;;;18.32;41.54
62694;BME280;48759;52.544;13.418;2023-04-07T16:46:08;101285.44;;;17.74;42.76
62694;BME280;48759;52.544;13.418;2023-04-07T16:48:35;101292.66;;;19.53;39.66
62694;BME280;48759;52.544;13.418;2023-04-07T16:51:05;101299.53;;;18.02;41.82
62694;BME280;48759;52.544;13.418;2023-04-07T16:53:34;101289.91;;;18.45;41.93
62694;BME280;48759;52.544;13.418;2023-04-07T16:56:03;101295.63;;;19.63;40.79
62694;BME280;48759;52.544;13.418;2023-04-07T16:58:38;101284.34;;;18.96;41.06
62694;BME280;48759;52.544;13.418;2023-04-07T17:01:17;101292.66;;;18.68;40.79
62694;BME280;48759;52.544;13.418;2023-04-07T17:03:46;101286.63;;;18.48;42.38
62694;BME280;48759;52.544;13.418;2023-04-07T17:06:15;101280.34;;;18.41;42.34
62694;BME280;48759;52.544;13.418;2023-04-07T17:08:46;101287.34;;;17.62;43.96
62694;BME280;48759;52.544;13.418;2023-04-07T17:11:13;101288.84;;;20.26;40.45
62694;BME280;48759;52.544;13.418;2023-04-07T17:13:56;101301.66;;;18.98;41.38
62694;BME280;48759;52.544;13.418;2023-04-07T17:16:24;101297.59;;;18.78;41.47
62694;BME280;48759;52.544;13.418;2023-04-07T17:18:51;101299.66;;;19.39;41.14
62694;BME280;48759;52.544;13.418;2023-04-07T17:21:22;101303.19;;;18.78;42.35
62694;BME280;48759;52.544;13.418;2023-04-07T17:23:53;101302.88;;;18.27;44.00
62694;BME280;48759;52.544;13.418;2023-04-07T17:26:22;101304.78;;;17.15;44.99
62694;BME280;48759;52.544;13.418;2023-04-07T17:28:50;101312.69;;;16.27;49.05
62694;BME280;48759;52.544;13.418;2023-04-07T17:31:18;101305.06;;;16.41;49.86
62694;BME280;48759;52.544;13.418;2023-04-07T17:33:47;101308.44;;;22.36;38.30
62694;BME280;48759;52.544;13.418;2023-04-07T17:36:36;101320.53;;;21.99;37.84
62694;BME280;48759;52.544;13.418;2023-04-07T17:39:08;101326.09;;;22.83;36.38
62694;BME280;48759;52.544;13.418;2023-04-07T17:41:49;101322.38;;;23.35;35.52
62694;BME280;48759;52.544;13.418;2023-04-07T17:44:33;101323.78;;;20.07;42.96
62694;BME280;48759;52.544;13.418;2023-04-07T17:47:02;101327.66;;;22.54;37.16
62694;BME280;48759;52.544;13.418;2023-04-07T17:49:31;101330.00;;;23.70;35.25
62694;BME280;48759;52.544;13.418;2023-04-07T17:52:00;101327.00;;;18.57;40.89
62694;BME280;48759;52.544;13.418;2023-04-07T17:54:27;101331.47;;;17.76;43.51
62694;BME280;48759;52.544;13.418;2023-04-07T17:56:54;101333.59;;;17.03;46.08
62694;BME280;48759;52.544;13.418;2023-04-07T17:59:23;101325.88;;;17.88;44.95
62694;BME280;48759;52.544;13.418;2023-04-07T18:01:50;101335.59;;;18.20;44.21
62694;BME280;48759;52.544;13.418;2023-04-07T18:04:17;101329.22;;;18.83;42.61
62694;BME280;48759;52.544;13.418;2023-04-07T18:06:44;101333.09;;;17.66;44.25
62694;BME280;48759;52.544;13.418;2023-04-07T18:09:14;101336.94;;;16.75;47.65
62694;BME280;48759;52.544;13.418;2023-04-07T18:11:41;101334.59;;;17.80;45.39
62694;BME280;48759;52.544;13.418;2023-04-07T18:14:08;101343.72;;;19.65;42.12
62694;BME280;48759;52.544;13.418;2023-04-07T18:16:38;101338.34;;;19.19;42.14
62694;BME280;48759;52.544;13.418;2023-04-07T18:19:05;101342.88;;;18.21;43.49
62694;BME280;48759;52.544;13.418;2023-04-07T18:21:32;101333.25;;;17.71;45.14
62694;BME280;48759;52.544;13.418;2023-04-07T18:24:06;101340.03;;;17.75;45.80
62694;BME280;48759;52.544;13.418;2023-04-07T18:26:35;101341.19;;;17.55;45.62
62694;BME280;48759;52.544;13.418;2023-04-07T18:29:02;101340.06;;;19.08;43.00
62694;BME280;48759;52.544;13.418;2023-04-07T18:31:31;101348.69;;;19.06;42.29
62694;BME280;48759;52.544;13.418;2023-04-07T18:33:58;101345.81;;;18.90;42.73
62694;BME280;48759;52.544;13.418;2023-04-07T18:36:25;101355.13;;;19.64;41.71
62694;BME280;48759;52.544;13.418;2023-04-07T18:38:53;101371.13;;;19.52;41.79
62694;BME280;48759;52.544;13.418;2023-04-07T18:41:23;101359.63;;;18.56;43.21
62694;BME280;48759;52.544;13.418;2023-04-07T18:43:53;101364.66;;;19.23;41.89
62694;BME280;48759;52.544;13.418;2023-04-07T18:46:20;101368.69;;;19.27;41.98
62694;BME280;48759;52.544;13.418;2023-04-07T18:48:48;101369.19;;;18.49;43.18
62694;BME280;48759;52.544;13.418;2023-04-07T18:51:15;101373.16;;;18.76;42.59
62694;BME280;48759;52.544;13.418;2023-04-07T18:53:45;101378.38;;;18.26;43.64
62694;BME280;48759;52.544;13.418;2023-04-07T18:56:14;101377.03;;;18.75;42.88
62694;BME280;48759;52.544;13.418;2023-04-07T18:58:44;101384.38;;;19.90;40.82
62694;BME280;48759;52.544;13.418;2023-04-07T19:01:18;101388.44;;;20.32;40.55
62694;BME280;48759;52.544;13.418;2023-04-07T19:03:58;101386.59;;;20.04;40.10
62694;BME280;48759;52.544;13.418;2023-04-07T19:06:37;101388.69;;;18.72;42.64
62694;BME280;48759;52.544;13.418;2023-04-07T19:09:17;101386.66;;;18.56;43.28
62694;BME280;48759;52.544;13.418;2023-04-07T19:12:00;101389.78;;;19.79;42.25
62694;BME280;48759;52.544;13.418;2023-04-07T19:14:32;101392.38;;;21.08;40.65
62694;BME280;48759;52.544;13.418;2023-04-07T19:17:00;101392.94;;;20.33;40.32
62694;BME280;48759;52.544;13.418;2023-04-07T19:19:31;101396.91;;;19.30;41.75
62694;BME280;48759;52.544;13.418;2023-04-07T19:22:03;101396.38;;;19.73;41.39
62694;BME280;48759;52.544;13.418;2023-04-07T19:24:34;101404.19;;;18.68;42.77
62694;BME280;48759;52.544;13.418;2023-04-07T19:27:04;101399.13;;;18.42;43.66
62694;BME280;48759;52.544;13.418;2023-04-07T19:29:34;101398.88;;;17.18;45.66
62694;BME280;48759;52.544;13.418;2023-04-07T19:32:05;101401.16;;;18.23;44.58
62694;BME280;48759;52.544;13.418;2023-04-07T19:34:36;101399.53;;;17.92;44.16
62694;BME280;48759;52.544;13.418;2023-04-07T19:37:06;101403.41;;;19.76;41.16
62694;BME280;48759;52.544;13.418;2023-04-07T19:39:41;101403.03;;;20.17;41.15
62694;BME280;48759;52.544;13.418;2023-04-07T19:42:23;101405.72;;;18.99;41.94
62694;BME280;48759;52.544;13.418;2023-04-07T19:45:11;101405.31;;;17.01;45.62
62694;BME280;48759;52.544;13.418;2023-04-07T19:47:49;101398.81;;;17.55;45.31
62694;BME280;48759;52.544;13.418;2023-04-07T19:50:50;101398.94;;;18.13;44.45
62694;BME280;48759;52.544;13.418;2023-04-07T19:53:27;101393.38;;;17.72;44.87
62694;BME280;48759;52.544;13.418;2023-04-07T19:55:56;101404.91;;;20.12;40.77
62694;BME280;48759;52.544;13.418;2023-04-07T19:58:28;101398.72;;;20.10;39.74
62694;BME280;48759;52.544;13.418;2023-04-07T20:01:14;101393.44;;;20.47;39.87
62694;BME280;48759;52.544;13.418;2023-04-07T20:06:49;101392.03;;;18.97;41.56
62694;BME280;48759;52.544;13.418;2023-04-07T20:09:34;101394.22;;;21.41;38.20
62694;BME280;48759;52.544;13.418;2023-04-07T20:12:25;101395.50;;;18.64;41.73
62694;BME280;48759;52.544;13.418;2023-04-07T20:15:13;101383.41;;;17.52;44.40
62694;BME280;48759;52.544;13.418;2023-04-07T20:17:46;101390.41;;;17.43;44.62
62694;BME280;48759;52.544;13.418;2023-04-07T20:20:28;101396.97;;;17.01;45.83
62694;BME280;48759;52.544;13.418;2023-04-07T20:23:19;101391.84;;;18.64;43.54
62694;BME280;48759;52.544;13.418;2023-04-07T20:26:02;101389.72;;;17.59;44.22
62694;BME280;48759;52.544;13.418;2023-04-07T20:28:54;101400.22;;;18.52;42.97
62694;BME280;48759;52.544;13.418;2023-04-07T20:31:51;101389.28;;;16.17;45.88
62694;BME280;48759;52.544;13.418;2023-04-07T20:34:37;101395.44;;;18.06;44.76
62694;BME280;48759;52.544;13.418;2023-04-07T20:37:13;101392.56;;;17.71;44.88
62694;BME280;48759;52.544;13.418;2023-04-07T20:39:45;101402.63;;;18.25;43.68
62694;BME280;48759;52.544;13.418;2023-04-07T20:42:14;101395.34;;;17.41;43.50
62694;BME280;48759;52.544;13.418;2023-04-07T20:44:48;101390.75;;;16.62;46.15
62694;BME280;48759;52.544;13.418;2023-04-07T20:47:21;101395.63;;;18.58;43.32
62694;BME280;48759;52.544;13.418;2023-04-07T20:49:49;101395.94;;;17.32;45.39
62694;BME280;48759;52.544;13.418;2023-04-07T20:52:26;76001.88;;;-149.86;45.39
62694;BME280;48759;52.544;13.418;2023-04-07T20:55:08;101404.56;;;18.60;42.84
62694;BME280;48759;52.544;13.418;2023-04-07T20:57:41;101392.22;;;19.07;42.33
62694;BME280;48759;52.544;13.418;2023-04-07T21:00:19;101396.44;;;18.47;42.22
62694;BME280;48759;52.544;13.418;2023-04-07T21:02:57;101390.72;;;17.35;45.06
62694;BME280;48759;52.544;13.418;2023-04-07T21:05:25;101396.53;;;18.05;44.34
62694;BME280;48759;52.544;13.418;2023-04-07T21:08:07;101395.22;;;18.43;43.52
62694;BME280;48759;52.544;13.418;2023-04-07T21:10:37;101405.56;;;19.05;42.29
62694;BME280;48759;52.544;13.418;2023-04-07T21:16:45;101396.69;;;18.33;39.51
62694;BME280;48759;52.544;13.418;2023-04-07T21:19:31;101411.47;;;18.81;42.27
62694;BME280;48759;52.544;13.418;2023-04-07T21:22:20;101406.28;;;19.36;41.54
62694;BME280;48759;52.544;13.418;2023-04-07T21:31:03;101405.75;;;18.76;42.90
62694;BME280;48759;52.544;13.418;2023-04-07T21:33:43;101408.34;;;19.57;41.76
62694;BME280;48759;52.544;13.418;2023-04-07T21:36:40;101408.00;;;18.50;42.20
62694;BME280;48759;52.544;13.418;2023-04-07T21:39:42;101413.03;;;20.30;40.14
62694;BME280;48759;52.544;13.418;2023-04-07T21:42:17;101412.66;;;18.38;42.63
62694;BME280;48759;52.544;13.418;2023-04-07T21:44:50;101414.38;;;18.97;42.14
62694;BME280;48759;52.544;13.418;2023-04-07T21:47:39;101402.78;;;19.57;41.40
62694;BME280;48759;52.544;13.418;2023-04-07T21:50:14;101403.06;;;20.56;39.54
62694;BME280;48759;52.544;13.418;2023-04-07T21:52:50;101398.25;;;20.51;39.42
62694;BME280;48759;52.544;13.418;2023-04-07T21:55:34;101402.34;;;20.27;39.79
62694;BME280;48759;52.544;13.418;2023-04-07T21:58:02;101396.09;;;18.55;42.18
62694;BME280;48759;52.544;13.418;2023-04-07T22:00:40;101398.56;;;17.98;42.72
62694;BME280;48759;52.544;13.418;2023-04-07T22:03:37;101388.63;;;17.79;44.86
62694;BME280;48759;52.544;13.418;2023-04-07T22:06:32;101408.63;;;19.72;41.17
62694;BME280;48759;52.544;13.418;2023-04-07T22:09:53;101391.13;;;18.57;42.25
62694;BME280;48759;52.544;13.418;2023-04-07T22:12:35;101403.97;;;18.81;42.28
62694;BME280;48759;52.544;13.418;2023-04-07T22:15:39;101408.31;;;19.40;41.54
62694;BME280;48759;52.544;13.418;2023-04-07T22:21:11;101411.47;;;19.32;41.66
62694;BME280;48759;52.544;13.418;2023-04-07T22:24:05;101405.25;;;18.20;43.63
62694;BME280;48759;52.544;13.418;2023-04-07T22:27:03;101397.94;;;18.49;43.65
62694;BME280;48759;52.544;13.418;2023-04-07T22:29:42;101388.78;;;18.30;43.34
62694;BME280;48759;52.544;13.418;2023-04-07T22:32:24;101398.03;;;19.18;41.74
62694;BME280;48759;52.544;13.418;2023-04-07T22:34:51;101391.53;;;19.97;40.51
62694;BME280;48759;52.544;13.418;2023-04-07T22:37:19;101386.50;;;19.54;41.25
62694;BME280;48759;52.544;13.418;2023-04-07T22:39:46;101398.81;;;19.01;42.01
62694;BME280;48759;52.544;13.418;2023-04-07T22:42:13;101401.91;;;19.57;40.75
62694;BME280;48759;52.544;13.418;2023-04-07T22:44:39;101401.16;;;18.69;42.50
62694;BME280;48759;52.544;13.418;2023-04-07T22:47:07;101402.34;;;19.37;41.31
62694;BME280;48759;52.544;13.418;2023-04-07T22:49:33;101394.94;;;19.02;42.73
62694;BME280;48759;52.544;13.418;2023-04-07T22:52:14;101406.78;;;20.23;40.04
62694;BME280;48759;52.544;13.418;2023-04-07T22:55:07;101395.53;;;19.90;40.93